Nolensville, Tennessee
Current Conditions -  °F | °C
As of 12:53 PM on Sunday 21 Dec 2014 (Local Time) from KBNA Reporting Station
Few Clouds Few Clouds  
Wind Chill: 52°   Ceiling: Unl
Heat Index: 52°   Visibility: 10mi
Dew Point: 31°   Wind: 6mph
Humidity: 45%   Direction: 100°E
Pressure: 30.13"   Gusts: NA
Location:  35.95°N, 86.67°W
Report Text: KBNA 211853Z 10005KT 10SM FEW200 11/M01 A3013 RMK AO2 SLP205 T01111006
Loading
Personal Weather Stations






























Interactive Weather Map New forecast layout! Learn more

10-Day Weather Forecast

Advertisements
Track Severe Weather on mobile